sensor_id;sensor_type;location;lat;lon;timestamp;pressure;altitude;pressure_sealevel;temperature
15709;BMP180;7954;51.914;8.420;2023-04-08T00:02:25;100917.94;;;12.23
15709;BMP180;7954;51.914;8.420;2023-04-08T00:04:53;100921.84;;;12.21
15709;BMP180;7954;51.914;8.420;2023-04-08T00:07:22;100917.69;;;12.21
15709;BMP180;7954;51.914;8.420;2023-04-08T00:09:50;100920.91;;;12.20
15709;BMP180;7954;51.914;8.420;2023-04-08T00:12:18;100928.91;;;12.18
15709;BMP180;7954;51.914;8.420;2023-04-08T00:14:48;100923.84;;;12.18
15709;BMP180;7954;51.914;8.420;2023-04-08T00:17:16;100917.63;;;12.16
15709;BMP180;7954;51.914;8.420;2023-04-08T00:19:44;100923.59;;;12.17
15709;BMP180;7954;51.914;8.420;2023-04-08T00:22:12;100919.19;;;12.16
15709;BMP180;7954;51.914;8.420;2023-04-08T00:24:39;100918.72;;;12.13
15709;BMP180;7954;51.914;8.420;2023-04-08T00:27:08;100918.47;;;12.11
15709;BMP180;7954;51.914;8.420;2023-04-08T00:29:36;100917.78;;;12.12
15709;BMP180;7954;51.914;8.420;2023-04-08T00:32:06;100922.44;;;12.15
15709;BMP180;7954;51.914;8.420;2023-04-08T00:34:34;100916.41;;;12.14
15709;BMP180;7954;51.914;8.420;2023-04-08T00:37:02;100919.50;;;12.17
15709;BMP180;7954;51.914;8.420;2023-04-08T00:39:30;100921.19;;;12.22
15709;BMP180;7954;51.914;8.420;2023-04-08T00:41:59;100921.06;;;12.31
15709;BMP180;7954;51.914;8.420;2023-04-08T00:44:27;100917.19;;;12.33
15709;BMP180;7954;51.914;8.420;2023-04-08T00:46:55;100913.41;;;12.41
15709;BMP180;7954;51.914;8.420;2023-04-08T00:49:25;100912.81;;;12.47
15709;BMP180;7954;51.914;8.420;2023-04-08T00:51:53;100906.22;;;12.53
15709;BMP180;7954;51.914;8.420;2023-04-08T00:54:21;100916.25;;;12.63
15709;BMP180;7954;51.914;8.420;2023-04-08T00:56:49;100915.91;;;12.71
15709;BMP180;7954;51.914;8.420;2023-04-08T00:59:18;100915.50;;;12.73
15709;BMP180;7954;51.914;8.420;2023-04-08T01:01:50;100924.78;;;12.78
15709;BMP180;7954;51.914;8.420;2023-04-08T01:04:28;100923.84;;;12.78
15709;BMP180;7954;51.914;8.420;2023-04-08T01:07:02;100923.09;;;12.73
15709;BMP180;7954;51.914;8.420;2023-04-08T01:09:37;100922.31;;;12.69
15709;BMP180;7954;51.914;8.420;2023-04-08T01:12:08;100920.41;;;12.62
15709;BMP180;7954;51.914;8.420;2023-04-08T01:14:41;100928.66;;;12.61
15709;BMP180;7954;51.914;8.420;2023-04-08T01:17:10;100924.97;;;12.59
15709;BMP180;7954;51.914;8.420;2023-04-08T01:19:40;100931.38;;;12.57
15709;BMP180;7954;51.914;8.420;2023-04-08T01:22:16;100923.59;;;12.61
15709;BMP180;7954;51.914;8.420;2023-04-08T01:24:46;100924.25;;;12.60
15709;BMP180;7954;51.914;8.420;2023-04-08T01:27:18;100925.47;;;12.62
15709;BMP180;7954;51.914;8.420;2023-04-08T01:29:47;100927.06;;;12.62
15709;BMP180;7954;51.914;8.420;2023-04-08T01:32:15;100920.44;;;12.68
15709;BMP180;7954;51.914;8.420;2023-04-08T01:34:44;100919.88;;;12.74
15709;BMP180;7954;51.914;8.420;2023-04-08T01:37:13;100919.69;;;12.78
15709;BMP180;7954;51.914;8.420;2023-04-08T01:39:42;100928.50;;;12.80
15709;BMP180;7954;51.914;8.420;2023-04-08T01:42:11;100931.50;;;12.83
15709;BMP180;7954;51.914;8.420;2023-04-08T01:44:42;100929.09;;;12.88
15709;BMP180;7954;51.914;8.420;2023-04-08T01:47:12;100914.41;;;12.91
15709;BMP180;7954;51.914;8.420;2023-04-08T01:49:40;100914.41;;;12.91
15709;BMP180;7954;51.914;8.420;2023-04-08T01:52:09;100913.97;;;12.94
15709;BMP180;7954;51.914;8.420;2023-04-08T01:54:37;100926.88;;;12.95
15709;BMP180;7954;51.914;8.420;2023-04-08T01:57:07;100913.97;;;12.94
15709;BMP180;7954;51.914;8.420;2023-04-08T01:59:41;100917.22;;;12.98
15709;BMP180;7954;51.914;8.420;2023-04-08T02:02:11;100921.19;;;13.02
15709;BMP180;7954;51.914;8.420;2023-04-08T02:04:41;100919.84;;;13.04
15709;BMP180;7954;51.914;8.420;2023-04-08T02:07:10;100915.50;;;13.08
15709;BMP180;7954;51.914;8.420;2023-04-08T02:09:38;100920.00;;;13.15
15709;BMP180;7954;51.914;8.420;2023-04-08T02:12:06;100918.84;;;13.18
15709;BMP180;7954;51.914;8.420;2023-04-08T02:14:34;100918.28;;;13.25
15709;BMP180;7954;51.914;8.420;2023-04-08T02:17:07;100915.31;;;13.27
15709;BMP180;7954;51.914;8.420;2023-04-08T02:19:43;100922.06;;;13.32
15709;BMP180;7954;51.914;8.420;2023-04-08T02:22:17;100919.06;;;13.35
15709;BMP180;7954;51.914;8.420;2023-04-08T02:24:47;100917.44;;;13.35
15709;BMP180;7954;51.914;8.420;2023-04-08T02:27:16;100914.50;;;13.38
15709;BMP180;7954;51.914;8.420;2023-04-08T02:29:46;100914.28;;;13.42
15709;BMP180;7954;51.914;8.420;2023-04-08T02:32:16;100914.53;;;13.43
15709;BMP180;7954;51.914;8.420;2023-04-08T02:34:45;100920.56;;;13.44
15709;BMP180;7954;51.914;8.420;2023-04-08T02:37:14;100921.97;;;13.47
15709;BMP180;7954;51.914;8.420;2023-04-08T02:39:42;100907.91;;;13.49
15709;BMP180;7954;51.914;8.420;2023-04-08T02:42:09;100918.75;;;13.48
15709;BMP180;7954;51.914;8.420;2023-04-08T02:44:39;100919.69;;;13.48
15709;BMP180;7954;51.914;8.420;2023-04-08T02:47:08;100917.88;;;13.53
15709;BMP180;7954;51.914;8.420;2023-04-08T02:49:37;100913.31;;;13.56
15709;BMP180;7954;51.914;8.420;2023-04-08T02:52:06;100919.09;;;13.60
15709;BMP180;7954;51.914;8.420;2023-04-08T02:54:34;100926.03;;;13.61
15709;BMP180;7954;51.914;8.420;2023-04-08T02:57:01;100926.13;;;13.67
15709;BMP180;7954;51.914;8.420;2023-04-08T02:59:29;100931.44;;;13.68
15709;BMP180;7954;51.914;8.420;2023-04-08T03:01:57;100930.47;;;13.68
15709;BMP180;7954;51.914;8.420;2023-04-08T03:04:25;100934.66;;;13.67
15709;BMP180;7954;51.914;8.420;2023-04-08T03:06:55;100925.69;;;13.69
15709;BMP180;7954;51.914;8.420;2023-04-08T03:09:24;100939.28;;;13.70
15709;BMP180;7954;51.914;8.420;2023-04-08T03:11:53;100933.34;;;13.75
15709;BMP180;7954;51.914;8.420;2023-04-08T03:14:20;100935.63;;;13.73
15709;BMP180;7954;51.914;8.420;2023-04-08T03:16:48;100935.13;;;13.70
15709;BMP180;7954;51.914;8.420;2023-04-08T03:19:16;100933.34;;;13.75
15709;BMP180;7954;51.914;8.420;2023-04-08T03:21:44;100926.19;;;13.78
15709;BMP180;7954;51.914;8.420;2023-04-08T03:24:14;100921.41;;;13.79
15709;BMP180;7954;51.914;8.420;2023-04-08T03:26:42;100918.66;;;13.83
15709;BMP180;7954;51.914;8.420;2023-04-08T03:29:10;100922.31;;;13.80
15709;BMP180;7954;51.914;8.420;2023-04-08T03:31:38;100931.78;;;13.81
15709;BMP180;7954;51.914;8.420;2023-04-08T03:34:06;100934.88;;;13.89
15709;BMP180;7954;51.914;8.420;2023-04-08T03:36:34;100936.22;;;13.87
15709;BMP180;7954;51.914;8.420;2023-04-08T03:39:02;100949.59;;;13.86
15709;BMP180;7954;51.914;8.420;2023-04-08T03:41:33;100943.38;;;13.84
15709;BMP180;7954;51.914;8.420;2023-04-08T03:44:00;100943.59;;;13.86
15709;BMP180;7954;51.914;8.420;2023-04-08T03:46:28;100937.66;;;13.91
15709;BMP180;7954;51.914;8.420;2023-04-08T03:48:56;100949.91;;;13.93
15709;BMP180;7954;51.914;8.420;2023-04-08T03:51:24;100945.50;;;13.92
15709;BMP180;7954;51.914;8.420;2023-04-08T03:53:51;100953.31;;;13.88
15709;BMP180;7954;51.914;8.420;2023-04-08T03:56:19;100948.91;;;13.87
15709;BMP180;7954;51.914;8.420;2023-04-08T03:58:49;100947.72;;;13.85
15709;BMP180;7954;51.914;8.420;2023-04-08T04:01:17;100956.97;;;13.85
15709;BMP180;7954;51.914;8.420;2023-04-08T04:03:45;100966.69;;;13.87
15709;BMP180;7954;51.914;8.420;2023-04-08T04:06:13;100960.94;;;13.88
15709;BMP180;7954;51.914;8.420;2023-04-08T04:08:41;100949.38;;;13.90
15709;BMP180;7954;51.914;8.420;2023-04-08T04:11:09;100953.34;;;13.94
15709;BMP180;7954;51.914;8.420;2023-04-08T04:13:37;100959.81;;;13.92
15709;BMP180;7954;51.914;8.420;2023-04-08T04:16:07;100960.06;;;13.93
15709;BMP180;7954;51.914;8.420;2023-04-08T04:18:35;100954.31;;;13.94
15709;BMP180;7954;51.914;8.420;2023-04-08T04:21:04;100956.13;;;13.95
15709;BMP180;7954;51.914;8.420;2023-04-08T04:23:32;100958.75;;;14.01
15709;BMP180;7954;51.914;8.420;2023-04-08T04:26:00;100953.22;;;14.03
15709;BMP180;7954;51.914;8.420;2023-04-08T04:28:28;100955.31;;;14.06
15709;BMP180;7954;51.914;8.420;2023-04-08T04:30:56;100956.47;;;14.08
15709;BMP180;7954;51.914;8.420;2023-04-08T04:33:25;100956.78;;;14.09
15709;BMP180;7954;51.914;8.420;2023-04-08T04:35:53;100961.88;;;14.09
15709;BMP180;7954;51.914;8.420;2023-04-08T04:38:22;100961.56;;;14.08
15709;BMP180;7954;51.914;8.420;2023-04-08T04:40:50;100965.25;;;14.04
15709;BMP180;7954;51.914;8.420;2023-04-08T04:43:17;100960.84;;;14.03
15709;BMP180;7954;51.914;8.420;2023-04-08T04:45:46;100965.16;;;13.99
15709;BMP180;7954;51.914;8.420;2023-04-08T04:48:16;100969.25;;;13.93
15709;BMP180;7954;51.914;8.420;2023-04-08T04:50:53;100973.44;;;13.92
15709;BMP180;7954;51.914;8.420;2023-04-08T04:53:21;100977.59;;;13.92
15709;BMP180;7954;51.914;8.420;2023-04-08T04:55:50;100975.34;;;13.99
15709;BMP180;7954;51.914;8.420;2023-04-08T04:58:19;100972.56;;;13.97
15709;BMP180;7954;51.914;8.420;2023-04-08T05:00:47;100975.53;;;13.95
15709;BMP180;7954;51.914;8.420;2023-04-08T05:03:16;100982.91;;;13.93
15709;BMP180;7954;51.914;8.420;2023-04-08T05:05:49;100979.69;;;13.94
15709;BMP180;7954;51.914;8.420;2023-04-08T05:08:17;100977.88;;;13.99
15709;BMP180;7954;51.914;8.420;2023-04-08T05:10:45;100976.28;;;13.99
15709;BMP180;7954;51.914;8.420;2023-04-08T05:13:15;100980.38;;;13.93
15709;BMP180;7954;51.914;8.420;2023-04-08T05:15:44;100991.00;;;13.96
15709;BMP180;7954;51.914;8.420;2023-04-08T05:18:12;100994.50;;;13.97
15709;BMP180;7954;51.914;8.420;2023-04-08T05:20:40;100991.69;;;13.95
15709;BMP180;7954;51.914;8.420;2023-04-08T05:23:09;100993.09;;;13.99
15709;BMP180;7954;51.914;8.420;2023-04-08T05:25:37;101006.00;;;13.95
15709;BMP180;7954;51.914;8.420;2023-04-08T05:28:05;100995.41;;;13.97
15709;BMP180;7954;51.914;8.420;2023-04-08T05:30:33;101005.34;;;14.01
15709;BMP180;7954;51.914;8.420;2023-04-08T05:33:01;101003.78;;;14.02
15709;BMP180;7954;51.914;8.420;2023-04-08T05:35:29;101006.88;;;14.10
15709;BMP180;7954;51.914;8.420;2023-04-08T05:37:58;101006.00;;;14.15
15709;BMP180;7954;51.914;8.420;2023-04-08T05:40:27;101006.00;;;14.15
15709;BMP180;7954;51.914;8.420;2023-04-08T05:42:57;101011.78;;;14.14
15709;BMP180;7954;51.914;8.420;2023-04-08T05:45:26;101016.59;;;14.13
15709;BMP180;7954;51.914;8.420;2023-04-08T05:47:54;101021.06;;;14.19
15709;BMP180;7954;51.914;8.420;2023-04-08T05:50:22;101014.16;;;14.23
15709;BMP180;7954;51.914;8.420;2023-04-08T05:52:50;101009.81;;;14.28
15709;BMP180;7954;51.914;8.420;2023-04-08T05:55:19;101014.72;;;14.32
15709;BMP180;7954;51.914;8.420;2023-04-08T05:57:48;101019.78;;;14.32
15709;BMP180;7954;51.914;8.420;2023-04-08T06:00:16;101029.28;;;14.33
15709;BMP180;7954;51.914;8.420;2023-04-08T06:02:45;101033.22;;;14.36
15709;BMP180;7954;51.914;8.420;2023-04-08T06:05:14;101033.72;;;14.39
15709;BMP180;7954;51.914;8.420;2023-04-08T06:07:41;101040.69;;;14.46
15709;BMP180;7954;51.914;8.420;2023-04-08T06:10:11;101036.13;;;14.49
15709;BMP180;7954;51.914;8.420;2023-04-08T06:12:38;101031.75;;;14.53
15709;BMP180;7954;51.914;8.420;2023-04-08T06:15:08;101027.34;;;14.52
15709;BMP180;7954;51.914;8.420;2023-04-08T06:17:36;101031.06;;;14.54
15709;BMP180;7954;51.914;8.420;2023-04-08T06:20:05;101045.66;;;14.61
15709;BMP180;7954;51.914;8.420;2023-04-08T06:22:34;101049.19;;;14.67
15709;BMP180;7954;51.914;8.420;2023-04-08T06:25:03;101043.38;;;14.62
15709;BMP180;7954;51.914;8.420;2023-04-08T06:27:31;101054.19;;;14.56
15709;BMP180;7954;51.914;8.420;2023-04-08T06:29:59;101056.03;;;14.57
15709;BMP180;7954;51.914;8.420;2023-04-08T06:32:28;101063.47;;;14.61
15709;BMP180;7954;51.914;8.420;2023-04-08T06:34:56;101061.88;;;14.61
15709;BMP180;7954;51.914;8.420;2023-04-08T06:37:24;101060.91;;;14.61
15709;BMP180;7954;51.914;8.420;2023-04-08T06:39:52;101065.34;;;14.67
15709;BMP180;7954;51.914;8.420;2023-04-08T06:42:20;101060.34;;;14.73
15709;BMP180;7954;51.914;8.420;2023-04-08T06:44:48;101076.59;;;14.84
15709;BMP180;7954;51.914;8.420;2023-04-08T06:47:16;101067.84;;;14.87
15709;BMP180;7954;51.914;8.420;2023-04-08T06:49:45;101077.06;;;14.87
15709;BMP180;7954;51.914;8.420;2023-04-08T06:52:13;101079.81;;;14.83
15709;BMP180;7954;51.914;8.420;2023-04-08T06:54:42;101082.16;;;14.87
15709;BMP180;7954;51.914;8.420;2023-04-08T06:57:11;101084.97;;;14.88
15709;BMP180;7954;51.914;8.420;2023-04-08T06:59:39;101091.19;;;14.85
15709;BMP180;7954;51.914;8.420;2023-04-08T07:02:07;101088.19;;;14.87
15709;BMP180;7954;51.914;8.420;2023-04-08T07:04:35;101097.94;;;14.95
15709;BMP180;7954;51.914;8.420;2023-04-08T07:07:04;101100.28;;;14.99
15709;BMP180;7954;51.914;8.420;2023-04-08T07:09:33;101103.59;;;15.09
15709;BMP180;7954;51.914;8.420;2023-04-08T07:12:02;101108.69;;;15.09
15709;BMP180;7954;51.914;8.420;2023-04-08T07:14:30;101110.34;;;15.14
15709;BMP180;7954;51.914;8.420;2023-04-08T07:16:58;101114.75;;;15.15
15709;BMP180;7954;51.914;8.420;2023-04-08T07:19:26;101100.50;;;15.21
15709;BMP180;7954;51.914;8.420;2023-04-08T07:21:54;101109.66;;;15.15
15709;BMP180;7954;51.914;8.420;2023-04-08T07:24:23;101112.00;;;15.19
15709;BMP180;7954;51.914;8.420;2023-04-08T07:26:53;101109.78;;;15.26
15709;BMP180;7954;51.914;8.420;2023-04-08T07:29:22;101108.19;;;15.32
15709;BMP180;7954;51.914;8.420;2023-04-08T07:31:50;101108.28;;;15.48
15709;BMP180;7954;51.914;8.420;2023-04-08T07:34:18;101105.31;;;15.51
15709;BMP180;7954;51.914;8.420;2023-04-08T07:36:46;101107.63;;;15.55
15709;BMP180;7954;51.914;8.420;2023-04-08T07:39:13;101109.94;;;15.48
15709;BMP180;7954;51.914;8.420;2023-04-08T07:41:42;101109.03;;;15.58
15709;BMP180;7954;51.914;8.420;2023-04-08T07:44:10;101109.09;;;15.69
15709;BMP180;7954;51.914;8.420;2023-04-08T07:46:42;101107.31;;;15.85
15709;BMP180;7954;51.914;8.420;2023-04-08T07:49:15;101124.28;;;16.01
15709;BMP180;7954;51.914;8.420;2023-04-08T07:51:43;101120.66;;;16.20
15709;BMP180;7954;51.914;8.420;2023-04-08T07:54:11;101116.06;;;16.34
15709;BMP180;7954;51.914;8.420;2023-04-08T07:56:44;101117.06;;;16.51
15709;BMP180;7954;51.914;8.420;2023-04-08T07:59:12;101115.22;;;16.56
15709;BMP180;7954;51.914;8.420;2023-04-08T08:01:40;101114.75;;;16.69
15709;BMP180;7954;51.914;8.420;2023-04-08T08:04:08;101108.94;;;16.70
15709;BMP180;7954;51.914;8.420;2023-04-08T08:06:37;101122.41;;;16.69
15709;BMP180;7954;51.914;8.420;2023-04-08T08:09:05;101123.81;;;16.78
15709;BMP180;7954;51.914;8.420;2023-04-08T08:11:33;101132.41;;;17.00
15709;BMP180;7954;51.914;8.420;2023-04-08T08:14:02;101124.94;;;17.24
15709;BMP180;7954;51.914;8.420;2023-04-08T08:16:31;101115.91;;;17.47
15709;BMP180;7954;51.914;8.420;2023-04-08T08:18:59;101116.09;;;17.54
15709;BMP180;7954;51.914;8.420;2023-04-08T08:21:27;101115.88;;;17.53
15709;BMP180;7954;51.914;8.420;2023-04-08T08:23:55;101134.47;;;17.46
15709;BMP180;7954;51.914;8.420;2023-04-08T08:26:24;101121.44;;;17.50
15709;BMP180;7954;51.914;8.420;2023-04-08T08:28:52;101119.34;;;17.59
15709;BMP180;7954;51.914;8.420;2023-04-08T08:31:22;101125.09;;;17.74
15709;BMP180;7954;51.914;8.420;2023-04-08T08:33:50;101127.56;;;17.96
15709;BMP180;7954;51.914;8.420;2023-04-08T08:36:18;101129.63;;;18.09
15709;BMP180;7954;51.914;8.420;2023-04-08T08:38:46;101126.25;;;18.38
15709;BMP180;7954;51.914;8.420;2023-04-08T08:41:14;101124.00;;;18.63
15709;BMP180;7954;51.914;8.420;2023-04-08T08:43:43;101111.56;;;18.76
15709;BMP180;7954;51.914;8.420;2023-04-08T08:46:11;101113.69;;;18.97
15709;BMP180;7954;51.914;8.420;2023-04-08T08:48:41;101109.47;;;19.03
15709;BMP180;7954;51.914;8.420;2023-04-08T08:51:11;101116.91;;;19.07
15709;BMP180;7954;51.914;8.420;2023-04-08T08:53:39;101113.41;;;19.06
15709;BMP180;7954;51.914;8.420;2023-04-08T08:56:11;101122.91;;;19.13
15709;BMP180;7954;51.914;8.420;2023-04-08T08:58:44;101113.75;;;19.20
15709;BMP180;7954;51.914;8.420;2023-04-08T09:01:30;101129.13;;;19.20
15709;BMP180;7954;51.914;8.420;2023-04-08T09:04:11;101128.31;;;19.32
15709;BMP180;7954;51.914;8.420;2023-04-08T09:06:40;101126.59;;;19.38
15709;BMP180;7954;51.914;8.420;2023-04-08T09:09:08;101135.47;;;19.40
15709;BMP180;7954;51.914;8.420;2023-04-08T09:11:37;101130.50;;;19.47
15709;BMP180;7954;51.914;8.420;2023-04-08T09:14:17;101133.50;;;19.68
15709;BMP180;7954;51.914;8.420;2023-04-08T09:16:45;101126.78;;;19.86
15709;BMP180;7954;51.914;8.420;2023-04-08T09:19:15;101125.16;;;19.87
15709;BMP180;7954;51.914;8.420;2023-04-08T09:21:43;101123.09;;;19.84
15709;BMP180;7954;51.914;8.420;2023-04-08T09:24:26;101131.41;;;19.94
15709;BMP180;7954;51.914;8.420;2023-04-08T09:26:54;101129.94;;;19.96
15709;BMP180;7954;51.914;8.420;2023-04-08T09:29:22;101141.28;;;19.80
15709;BMP180;7954;51.914;8.420;2023-04-08T09:31:53;101132.41;;;19.84
15709;BMP180;7954;51.914;8.420;2023-04-08T09:34:23;101136.16;;;19.80
15709;BMP180;7954;51.914;8.420;2023-04-08T09:36:53;101145.19;;;19.66
15709;BMP180;7954;51.914;8.420;2023-04-08T09:39:22;101143.06;;;19.69
15709;BMP180;7954;51.914;8.420;2023-04-08T09:41:51;101143.56;;;19.66
15709;BMP180;7954;51.914;8.420;2023-04-08T09:44:19;101139.72;;;19.75
15709;BMP180;7954;51.914;8.420;2023-04-08T09:46:55;101146.22;;;19.79
15709;BMP180;7954;51.914;8.420;2023-04-08T09:49:28;101151.41;;;19.97
15709;BMP180;7954;51.914;8.420;2023-04-08T09:51:58;101148.53;;;20.18
15709;BMP180;7954;51.914;8.420;2023-04-08T09:54:37;101148.56;;;20.36
15709;BMP180;7954;51.914;8.420;2023-04-08T09:57:10;101143.28;;;20.47
15709;BMP180;7954;51.914;8.420;2023-04-08T09:59:45;101145.50;;;20.69
15709;BMP180;7954;51.914;8.420;2023-04-08T10:02:19;101144.56;;;20.86
15709;BMP180;7954;51.914;8.420;2023-04-08T10:04:53;101131.97;;;21.13
15709;BMP180;7954;51.914;8.420;2023-04-08T10:07:22;101131.16;;;21.07
15709;BMP180;7954;51.914;8.420;2023-04-08T10:09:50;101139.44;;;20.99
15709;BMP180;7954;51.914;8.420;2023-04-08T10:12:18;101148.78;;;20.86
15709;BMP180;7954;51.914;8.420;2023-04-08T10:17:47;101137.22;;;21.07
15709;BMP180;7954;51.914;8.420;2023-04-08T10:20:47;101134.84;;;21.09
15709;BMP180;7954;51.914;8.420;2023-04-08T10:23:16;101143.19;;;21.13
15709;BMP180;7954;51.914;8.420;2023-04-08T10:25:47;101140.94;;;21.22
15709;BMP180;7954;51.914;8.420;2023-04-08T10:28:23;101144.94;;;21.20
15709;BMP180;7954;51.914;8.420;2023-04-08T10:30:54;101150.19;;;21.14
15709;BMP180;7954;51.914;8.420;2023-04-08T10:33:31;101147.69;;;21.09
15709;BMP180;7954;51.914;8.420;2023-04-08T10:36:09;101146.28;;;21.11
15709;BMP180;7954;51.914;8.420;2023-04-08T10:38:38;101146.69;;;21.14
15709;BMP180;7954;51.914;8.420;2023-04-08T10:41:09;101148.44;;;21.32
15709;BMP180;7954;51.914;8.420;2023-04-08T10:43:37;101145.47;;;21.30
15709;BMP180;7954;51.914;8.420;2023-04-08T10:46:05;101144.75;;;21.31
15709;BMP180;7954;51.914;8.420;2023-04-08T10:48:33;101150.41;;;21.28
15709;BMP180;7954;51.914;8.420;2023-04-08T10:51:04;101144.03;;;21.19
15709;BMP180;7954;51.914;8.420;2023-04-08T10:53:33;101164.06;;;21.09
15709;BMP180;7954;51.914;8.420;2023-04-08T10:56:05;101149.25;;;21.14
15709;BMP180;7954;51.914;8.420;2023-04-08T10:58:34;101145.13;;;21.21
15709;BMP180;7954;51.914;8.420;2023-04-08T11:01:03;101146.81;;;21.45
15709;BMP180;7954;51.914;8.420;2023-04-08T11:03:33;101157.13;;;21.70
15709;BMP180;7954;51.914;8.420;2023-04-08T11:06:16;101145.28;;;21.90
15709;BMP180;7954;51.914;8.420;2023-04-08T11:08:45;101136.63;;;21.90
15709;BMP180;7954;51.914;8.420;2023-04-08T11:11:13;101149.41;;;21.83
15709;BMP180;7954;51.914;8.420;2023-04-08T11:13:44;101146.09;;;21.96
15709;BMP180;7954;51.914;8.420;2023-04-08T11:16:19;101145.53;;;22.23
15709;BMP180;7954;51.914;8.420;2023-04-08T11:18:49;101146.19;;;22.66
15709;BMP180;7954;51.914;8.420;2023-04-08T11:21:19;101145.22;;;22.78
15709;BMP180;7954;51.914;8.420;2023-04-08T11:23:49;101137.75;;;22.87
15709;BMP180;7954;51.914;8.420;2023-04-08T11:26:19;101139.88;;;22.96
15709;BMP180;7954;51.914;8.420;2023-04-08T11:28:47;101137.97;;;23.08
15709;BMP180;7954;51.914;8.420;2023-04-08T11:31:18;101135.16;;;22.87
15709;BMP180;7954;51.914;8.420;2023-04-08T11:33:52;101137.63;;;22.73
15709;BMP180;7954;51.914;8.420;2023-04-08T11:36:22;101136.22;;;22.82
15709;BMP180;7954;51.914;8.420;2023-04-08T11:38:52;101135.81;;;22.98
15709;BMP180;7954;51.914;8.420;2023-04-08T11:41:20;101137.47;;;22.98
15709;BMP180;7954;51.914;8.420;2023-04-08T11:43:52;101135.69;;;22.84
15709;BMP180;7954;51.914;8.420;2023-04-08T11:46:21;101143.56;;;22.60
15709;BMP180;7954;51.914;8.420;2023-04-08T11:49:03;101139.75;;;22.31
15709;BMP180;7954;51.914;8.420;2023-04-08T11:51:53;101163.72;;;21.68
15709;BMP180;7954;51.914;8.420;2023-04-08T11:54:25;101152.19;;;21.59
15709;BMP180;7954;51.914;8.420;2023-04-08T11:56:54;101167.44;;;21.58
15709;BMP180;7954;51.914;8.420;2023-04-08T11:59:24;101161.06;;;21.61
15709;BMP180;7954;51.914;8.420;2023-04-08T12:01:55;101160.09;;;21.61
15709;BMP180;7954;51.914;8.420;2023-04-08T12:04:24;101166.78;;;21.53
15709;BMP180;7954;51.914;8.420;2023-04-08T12:06:57;101160.56;;;21.33
15709;BMP180;7954;51.914;8.420;2023-04-08T12:09:25;101166.66;;;21.34
15709;BMP180;7954;51.914;8.420;2023-04-08T12:11:53;101154.91;;;21.36
15709;BMP180;7954;51.914;8.420;2023-04-08T12:14:22;101157.47;;;21.24
15709;BMP180;7954;51.914;8.420;2023-04-08T12:16:53;101167.44;;;21.15
15709;BMP180;7954;51.914;8.420;2023-04-08T12:19:21;101179.44;;;20.97
15709;BMP180;7954;51.914;8.420;2023-04-08T12:21:49;101169.75;;;20.89
15709;BMP180;7954;51.914;8.420;2023-04-08T12:24:18;101172.09;;;20.87
15709;BMP180;7954;51.914;8.420;2023-04-08T12:26:46;101177.13;;;20.93
15709;BMP180;7954;51.914;8.420;2023-04-08T12:29:14;101168.03;;;21.07
15709;BMP180;7954;51.914;8.420;2023-04-08T12:31:41;101160.56;;;21.21
15709;BMP180;7954;51.914;8.420;2023-04-08T12:34:09;101162.22;;;21.33
15709;BMP180;7954;51.914;8.420;2023-04-08T12:36:37;101163.28;;;21.40
15709;BMP180;7954;51.914;8.420;2023-04-08T12:39:07;101166.59;;;21.64
15709;BMP180;7954;51.914;8.420;2023-04-08T12:41:36;101171.63;;;21.70
15709;BMP180;7954;51.914;8.420;2023-04-08T12:44:04;101167.81;;;21.86
15709;BMP180;7954;51.914;8.420;2023-04-08T12:46:32;101174.78;;;21.99
15709;BMP180;7954;51.914;8.420;2023-04-08T12:49:00;101171.25;;;22.23
15709;BMP180;7954;51.914;8.420;2023-04-08T12:51:31;101165.50;;;22.63
15709;BMP180;7954;51.914;8.420;2023-04-08T12:53:59;101161.72;;;22.73
15709;BMP180;7954;51.914;8.420;2023-04-08T12:56:27;101162.19;;;22.83
15709;BMP180;7954;51.914;8.420;2023-04-08T12:58:56;101156.91;;;22.69
15709;BMP180;7954;51.914;8.420;2023-04-08T13:01:25;101157.81;;;22.70
15709;BMP180;7954;51.914;8.420;2023-04-08T13:03:54;101158.06;;;22.59
15709;BMP180;7954;51.914;8.420;2023-04-08T13:06:22;101162.06;;;22.38
15709;BMP180;7954;51.914;8.420;2023-04-08T13:08:49;101152.97;;;22.47
15709;BMP180;7954;51.914;8.420;2023-04-08T13:11:18;101176.13;;;22.47
15709;BMP180;7954;51.914;8.420;2023-04-08T13:13:47;101170.25;;;22.28
15709;BMP180;7954;51.914;8.420;2023-04-08T13:16:16;101168.59;;;22.29
15709;BMP180;7954;51.914;8.420;2023-04-08T13:18:44;101161.34;;;22.26
15709;BMP180;7954;51.914;8.420;2023-04-08T13:21:12;101183.13;;;22.16
15709;BMP180;7954;51.914;8.420;2023-04-08T13:23:40;101162.03;;;22.06
15709;BMP180;7954;51.914;8.420;2023-04-08T13:26:08;101174.09;;;21.88
15709;BMP180;7954;51.914;8.420;2023-04-08T13:28:36;101166.47;;;21.70
15709;BMP180;7954;51.914;8.420;2023-04-08T13:31:24;101170.06;;;21.52
15709;BMP180;7954;51.914;8.420;2023-04-08T13:33:51;101168.41;;;21.40
15709;BMP180;7954;51.914;8.420;2023-04-08T13:36:23;101173.72;;;21.30
15709;BMP180;7954;51.914;8.420;2023-04-08T13:38:51;101174.34;;;21.22
15709;BMP180;7954;51.914;8.420;2023-04-08T13:41:19;101179.53;;;21.04
15709;BMP180;7954;51.914;8.420;2023-04-08T13:43:47;101183.53;;;20.89
15709;BMP180;7954;51.914;8.420;2023-04-08T13:46:15;101188.38;;;20.75
15709;BMP180;7954;51.914;8.420;2023-04-08T13:48:45;101191.59;;;20.62
15709;BMP180;7954;51.914;8.420;2023-04-08T13:51:13;101185.63;;;20.56
15709;BMP180;7954;51.914;8.420;2023-04-08T13:53:40;101191.75;;;20.51
15709;BMP180;7954;51.914;8.420;2023-04-08T13:56:08;101188.72;;;20.48
15709;BMP180;7954;51.914;8.420;2023-04-08T13:58:37;101175.91;;;20.48
15709;BMP180;7954;51.914;8.420;2023-04-08T14:01:05;101181.47;;;20.51
15709;BMP180;7954;51.914;8.420;2023-04-08T14:03:33;101183.59;;;20.48
15709;BMP180;7954;51.914;8.420;2023-04-08T14:06:02;101181.91;;;20.36
15709;BMP180;7954;51.914;8.420;2023-04-08T14:08:30;101182.75;;;20.24
15709;BMP180;7954;51.914;8.420;2023-04-08T14:10:58;101180.53;;;20.15
15709;BMP180;7954;51.914;8.420;2023-04-08T14:13:26;101177.84;;;20.08
15709;BMP180;7954;51.914;8.420;2023-04-08T14:15:54;101173.22;;;20.05
15709;BMP180;7954;51.914;8.420;2023-04-08T14:18:24;101176.91;;;20.07
15709;BMP180;7954;51.914;8.420;2023-04-08T14:20:53;101169.88;;;20.12
15709;BMP180;7954;51.914;8.420;2023-04-08T14:23:23;101168.28;;;20.25
15709;BMP180;7954;51.914;8.420;2023-04-08T14:25:50;101173.78;;;20.33